McAllister, Montana
Current Conditions -  °F | °C
As of 10:56 AM on Monday 20 Oct 2014 (Local Time) from KBZN Reporting Station
Clear Clear  
Wind Chill: 12°   Ceiling: Unl
Heat Index: 12°   Visibility: 10mi
Dew Point:   Wind: 3mph
Humidity: 57%   Direction: 350°N
Pressure: 30"   Gusts: NA
Location:  45.44°N, 111.73°W
Report Text: KBZN 201656Z 35003KT 10SM CLR 12/03 A3000 RMK AO2 SLP158 T01170033
Loading
Personal Weather Stations






























Interactive Weather Map
Tropical Storm Tracking
New forecast layout! Learn more

10-Day Weather Forecast

Advertisements
Track Severe Weather on mobile